createdAt,value
2019-05-05T00:02:11.201Z,77.03
2019-05-05T00:05:04.939Z,76.90
2019-05-05T00:07:39.146Z,77.13
2019-05-05T00:10:16.654Z,77.17
2019-05-05T00:24:47.107Z,76.61
2019-05-05T00:27:34.704Z,76.23
2019-05-05T00:30:08.484Z,76.04
2019-05-05T01:13:45.612Z,77.53
2019-05-05T01:16:19.509Z,77.29
2019-05-05T01:18:55.485Z,76.88
2019-05-05T01:21:28.780Z,76.39
2019-05-05T02:21:08.007Z,76.76
2019-05-05T02:23:41.239Z,76.90
2019-05-05T02:26:15.406Z,76.80
2019-05-05T02:29:05.039Z,76.63
2019-05-05T02:32:06.201Z,76.62
2019-05-05T02:34:45.646Z,76.62
2019-05-05T02:37:19.533Z,76.78
2019-05-05T02:40:02.009Z,76.83
2019-05-05T02:42:29.672Z,77.03
2019-05-05T02:45:07.322Z,77.40
2019-05-05T02:48:25.017Z,77.55
2019-05-05T02:51:02.254Z,77.58
2019-05-05T03:05:50.112Z,77.34
2019-05-05T03:12:43.789Z,77.76
2019-05-05T03:19:33.974Z,77.79
2019-05-05T03:22:08.103Z,77.93
2019-05-05T03:24:44.532Z,77.94
2019-05-05T03:27:17.697Z,78.05
2019-05-05T03:49:33.897Z,78.84
2019-05-05T03:52:54.411Z,79.00
2019-05-05T03:55:28.835Z,79.11
2019-05-05T03:58:19.592Z,79.25
2019-05-05T04:01:34.573Z,79.09
2019-05-05T04:04:45.098Z,79.19
2019-05-05T04:07:19.783Z,79.23
2019-05-05T04:10:09.045Z,79.39
2019-05-05T04:12:43.493Z,79.27
2019-05-05T04:26:17.037Z,78.79
2019-05-05T04:28:50.957Z,78.53
2019-05-05T05:29:55.965Z,80.62
2019-05-05T05:32:29.646Z,80.83
2019-05-05T05:35:03.698Z,80.78
2019-05-05T05:38:24.108Z,80.83
2019-05-05T05:41:06.061Z,80.86
2019-05-05T05:44:05.017Z,80.79
2019-05-05T05:57:36.664Z,80.50
2019-05-05T06:00:25.064Z,80.48
2019-05-05T06:03:03.755Z,80.43
2019-05-05T06:05:38.030Z,80.41
2019-05-05T06:19:50.046Z,78.44
2019-05-05T06:22:29.199Z,77.94
2019-05-05T06:25:00.601Z,77.71
2019-05-05T06:27:38.338Z,78.00
2019-05-05T06:30:10.658Z,78.00
2019-05-05T06:32:45.757Z,78.00
2019-05-05T06:35:19.838Z,78.10
2019-05-05T06:37:56.955Z,78.12
2019-05-05T06:41:05.280Z,77.97
2019-05-05T06:51:11.507Z,76.51
2019-05-05T06:53:47.805Z,77.29
2019-05-05T07:07:04.897Z,75.50
2019-05-05T07:10:01.091Z,75.92
2019-05-05T07:12:40.403Z,75.86
2019-05-05T07:15:15.435Z,75.77
2019-05-05T07:18:25.511Z,75.58
2019-05-05T07:21:14.218Z,74.83
2019-05-05T07:24:01.349Z,74.53
2019-05-05T07:26:36.580Z,75.07
2019-05-05T07:29:10.652Z,73.87
2019-05-05T07:31:45.000Z,72.26
2019-05-05T07:35:14.549Z,72.37
2019-05-05T07:37:50.445Z,71.42
2019-05-05T07:40:25.232Z,72.17
2019-05-05T07:42:59.535Z,71.34
2019-05-05T07:45:47.657Z,70.34
2019-05-05T07:48:44.773Z,71.12
2019-05-05T07:51:19.882Z,69.63
2019-05-05T07:53:54.743Z,70.57
2019-05-05T07:56:30.161Z,70.24
2019-05-05T07:59:05.511Z,68.92
2019-05-05T08:01:38.808Z,70.35
2019-05-05T08:04:14.132Z,68.71
2019-05-05T08:06:47.792Z,68.76
2019-05-05T08:09:24.677Z,67.36
2019-05-05T08:11:56.868Z,66.58
2019-05-05T08:14:34.091Z,65.22
2019-05-05T08:28:15.706Z,65.55
2019-05-05T08:30:56.877Z,66.62
2019-05-05T08:34:29.025Z,67.27
2019-05-05T08:48:50.684Z,66.77
2019-05-05T08:51:26.985Z,65.27
2019-05-05T09:05:00.950Z,57.71
2019-05-05T09:07:35.974Z,57.90
2019-05-05T09:26:43.739Z,63.25
2019-05-05T09:29:26.373Z,61.73
2019-05-05T09:32:00.377Z,61.67
2019-05-05T09:34:54.098Z,59.70
2019-05-05T09:37:28.917Z,59.33
2019-05-05T09:56:14.981Z,56.60
2019-05-05T09:59:04.402Z,58.90
2019-05-05T10:01:56.858Z,56.04
2019-05-05T10:04:32.216Z,56.80
2019-05-05T10:07:06.367Z,58.63
2019-05-05T10:09:58.355Z,58.34
2019-05-05T10:16:00.688Z,58.31
2019-05-05T10:18:36.000Z,55.69
2019-05-05T10:21:24.453Z,55.72
2019-05-05T10:23:59.324Z,54.98
2019-05-05T10:26:34.443Z,54.85
2019-05-05T10:29:13.620Z,53.48
2019-05-05T10:32:30.299Z,53.91
2019-05-05T10:35:09.694Z,56.07
2019-05-05T10:48:18.449Z,66.41
2019-05-05T11:04:27.445Z,73.24
2019-05-05T11:07:04.215Z,73.14
2019-05-05T11:09:44.363Z,73.77
2019-05-05T11:12:18.766Z,73.14
2019-05-05T11:15:11.483Z,72.57
2019-05-05T11:17:57.858Z,69.76
2019-05-05T11:20:34.080Z,70.94
2019-05-05T11:23:14.554Z,70.90
2019-05-05T11:25:48.290Z,69.25
2019-05-05T11:28:33.769Z,67.40
2019-05-05T11:31:18.833Z,67.24
2019-05-05T11:34:15.595Z,66.45
2019-05-05T11:37:08.543Z,66.49
2019-05-05T11:39:44.567Z,66.27
2019-05-05T11:48:30.557Z,64.73
2019-05-05T11:51:04.512Z,64.11
2019-05-05T11:53:48.362Z,61.45
2019-05-05T11:56:23.812Z,60.45
2019-05-05T11:58:57.216Z,60.22
2019-05-05T12:02:13.955Z,59.92
2019-05-05T12:04:48.696Z,62.22
2019-05-05T12:07:23.738Z,61.35
2019-05-05T12:09:59.410Z,62.23
2019-05-05T12:12:33.770Z,63.38
2019-05-05T12:15:08.727Z,64.35
2019-05-05T12:28:40.090Z,65.04
2019-05-05T12:31:19.023Z,64.66
2019-05-05T12:38:13.305Z,67.44
2019-05-05T12:55:44.543Z,64.87
2019-05-05T12:58:22.609Z,63.12
2019-05-05T13:01:33.562Z,61.00
2019-05-05T13:04:08.590Z,61.41
2019-05-05T13:06:45.025Z,58.67
2019-05-05T13:09:24.423Z,59.61
2019-05-05T13:12:30.324Z,56.50
2019-05-05T13:15:09.023Z,56.44
2019-05-05T17:36:04.626Z,53.37
2019-05-05T17:38:47.542Z,55.19
2019-05-05T17:41:39.076Z,55.67
2019-05-05T17:44:26.413Z,55.82
2019-05-05T17:58:13.619Z,55.97
2019-05-05T18:00:56.782Z,56.23
2019-05-05T18:30:44.680Z,58.26
2019-05-05T18:45:25.014Z,60.86
2019-05-05T18:48:04.445Z,61.09
2019-05-05T18:50:37.604Z,61.53
2019-05-05T18:53:10.724Z,61.80
2019-05-05T18:55:45.563Z,62.59
2019-05-05T18:58:26.900Z,62.71
2019-05-05T19:01:24.153Z,63.06
2019-05-05T19:04:32.096Z,62.28
2019-05-05T19:07:35.635Z,62.37
2019-05-05T19:10:09.580Z,62.64
2019-05-05T19:12:44.485Z,62.78
2019-05-05T19:15:20.573Z,63.00
2019-05-05T19:18:01.545Z,63.75
2019-05-05T19:20:44.458Z,64.09
2019-05-05T19:23:19.406Z,64.24
2019-05-05T19:25:56.115Z,64.52
2019-05-05T19:32:38.094Z,64.96
2019-05-05T19:35:12.035Z,65.94
2019-05-05T19:38:15.549Z,66.05
2019-05-05T19:51:30.991Z,68.14
2019-05-05T19:54:06.707Z,68.29
2019-05-05T19:57:00.651Z,68.67
2019-05-05T19:59:35.789Z,68.77
2019-05-05T20:02:15.718Z,69.30
2019-05-05T20:04:49.961Z,69.57
2019-05-05T20:07:43.871Z,70.17
2019-05-05T20:10:18.143Z,70.32
2019-05-05T20:13:05.025Z,70.80
2019-05-05T20:16:07.916Z,70.89
2019-05-05T20:18:44.939Z,71.20
2019-05-05T20:21:24.496Z,71.64
2019-05-05T20:24:04.521Z,71.82
2019-05-05T20:26:39.830Z,72.07
2019-05-05T20:29:16.940Z,72.18
2019-05-05T20:31:51.436Z,72.38
2019-05-05T20:34:59.253Z,72.31
2019-05-05T20:38:04.878Z,72.34
2019-05-05T20:41:14.216Z,72.55
2019-05-05T20:43:59.110Z,72.49
2019-05-05T20:46:44.031Z,72.44
2019-05-05T20:49:18.865Z,72.28
2019-05-05T20:55:09.280Z,72.81
2019-05-05T20:57:55.014Z,72.55
2019-05-05T21:00:29.723Z,72.29
2019-05-05T21:03:05.195Z,72.32
2019-05-05T21:05:39.538Z,72.63
2019-05-05T21:08:25.563Z,72.57
2019-05-05T21:11:17.747Z,71.88
2019-05-05T21:13:54.224Z,72.37
2019-05-05T21:17:17.065Z,72.63
2019-05-05T21:34:53.039Z,73.90
2019-05-05T21:37:55.654Z,73.48
2019-05-05T21:47:25.640Z,73.98
2019-05-05T21:49:59.196Z,74.11
2019-05-05T21:52:39.238Z,74.21
2019-05-05T21:55:33.892Z,74.31
2019-05-05T21:58:25.390Z,74.18
2019-05-05T22:01:18.754Z,73.87
2019-05-05T22:03:53.791Z,73.73
2019-05-05T22:06:28.171Z,73.98
2019-05-05T22:09:20.389Z,74.50
2019-05-05T22:11:54.562Z,75.12
2019-05-05T22:14:29.955Z,75.23
2019-05-05T22:17:04.181Z,75.45
2019-05-05T22:19:44.547Z,75.44
2019-05-05T22:22:20.225Z,75.25
2019-05-05T22:24:54.684Z,75.28
2019-05-05T22:27:28.463Z,75.50
2019-05-05T22:30:09.525Z,75.63
2019-05-05T22:32:38.346Z,75.47
2019-05-05T22:35:23.978Z,75.33
2019-05-05T22:37:58.802Z,75.28
2019-05-05T22:40:56.461Z,75.44
2019-05-05T22:43:44.230Z,75.61
2019-05-05T22:46:28.929Z,75.64
2019-05-05T22:49:03.939Z,75.88
2019-05-05T22:51:40.470Z,75.95
2019-05-05T22:54:14.930Z,76.09
2019-05-05T22:57:06.812Z,75.93
2019-05-05T22:59:54.133Z,76.05
2019-05-05T23:02:33.935Z,76.14
2019-05-05T23:05:54.702Z,76.32
2019-05-05T23:08:29.110Z,76.80
2019-05-05T23:11:23.968Z,76.81
2019-05-05T23:14:16.556Z,76.88
2019-05-05T23:16:53.776Z,76.81
2019-05-05T23:19:30.907Z,77.21
2019-05-05T23:22:16.569Z,77.25
2019-05-05T23:24:55.423Z,76.84
2019-05-05T23:27:48.161Z,76.89
2019-05-05T23:30:41.163Z,76.92
2019-05-05T23:33:14.315Z,76.77
2019-05-05T23:35:48.376Z,76.76
2019-05-05T23:38:23.931Z,77.00
2019-05-05T23:40:57.759Z,77.12
2019-05-05T23:43:42.139Z,77.18
2019-05-05T23:46:16.272Z,77.53
2019-05-05T23:49:01.051Z,77.35
2019-05-05T23:51:36.557Z,77.37
2019-05-05T23:54:27.973Z,77.72
2019-05-05T23:57:19.537Z,77.86
